createdAt,value
2022-08-05T00:02:21.644Z,2.85
2022-08-05T00:04:48.083Z,2.55
2022-08-05T00:07:59.440Z,2.17
2022-08-05T00:10:09.210Z,2.60
2022-08-05T00:12:35.601Z,2.55
2022-08-05T00:15:55.877Z,2.28
2022-08-05T00:18:08.265Z,2.28
2022-08-05T00:20:34.597Z,2.28
2022-08-05T00:23:12.437Z,2.03
2022-08-05T00:25:45.657Z,2.72
2022-08-05T00:28:12.820Z,2.30
2022-08-05T00:30:39.196Z,2.10
2022-08-05T00:33:15.447Z,2.17
2022-08-05T00:36:16.281Z,2.13
2022-08-05T00:38:44.128Z,2.55
2022-08-05T00:41:11.632Z,2.35
2022-08-05T00:43:46.903Z,1.80
2022-08-05T00:46:13.892Z,2.28
2022-08-05T00:48:50.903Z,2.00
2022-08-05T00:51:50.935Z,2.08
2022-08-05T00:54:04.834Z,2.00
2022-08-05T00:56:32.319Z,1.60
2022-08-05T00:58:59.012Z,1.63
2022-08-05T01:01:48.286Z,1.65
2022-08-05T01:04:14.062Z,1.90
2022-08-05T01:06:40.776Z,1.90
2022-08-05T01:09:09.985Z,1.95
2022-08-05T01:11:37.993Z,2.15
2022-08-05T01:14:17.814Z,1.42
2022-08-05T01:16:57.089Z,1.55
2022-08-05T01:19:36.821Z,1.60
2022-08-05T01:22:27.896Z,1.42
2022-08-05T01:25:04.608Z,1.67
2022-08-05T01:27:55.169Z,1.77
2022-08-05T01:30:33.495Z,2.08
2022-08-05T01:33:01.877Z,1.20
2022-08-05T01:35:51.295Z,1.50
2022-08-05T01:38:27.190Z,1.60
2022-08-05T01:40:57.331Z,1.65
2022-08-05T01:43:26.452Z,1.85
2022-08-05T01:45:56.143Z,1.52
2022-08-05T01:48:23.354Z,1.65
2022-08-05T01:50:51.503Z,1.42
2022-08-05T01:53:54.983Z,1.92
2022-08-05T01:56:09.226Z,1.88
2022-08-05T01:58:44.911Z,1.65
2022-08-05T02:01:13.263Z,1.70
2022-08-05T02:03:43.468Z,1.50
2022-08-05T02:06:23.978Z,1.40
2022-08-05T02:08:58.862Z,1.70
2022-08-05T02:11:32.715Z,1.20
2022-08-05T02:14:08.132Z,1.40
2022-08-05T02:16:45.099Z,1.40
2022-08-05T02:19:20.274Z,1.20
2022-08-05T02:21:58.802Z,1.50
2022-08-05T02:24:27.587Z,1.27
2022-08-05T02:26:59.778Z,1.23
2022-08-05T02:29:58.201Z,1.40
2022-08-05T02:32:30.866Z,1.30
2022-08-05T02:34:59.474Z,1.73
2022-08-05T02:37:32.066Z,1.27
2022-08-05T02:39:58.788Z,1.40
2022-08-05T02:42:27.317Z,1.40
2022-08-05T02:44:55.152Z,1.90
2022-08-05T02:47:22.386Z,1.50
2022-08-05T02:49:49.356Z,2.10
2022-08-05T02:52:29.436Z,1.80
2022-08-05T02:54:57.605Z,1.40
2022-08-05T02:58:10.139Z,1.48
2022-08-05T03:00:12.212Z,1.67
2022-08-05T03:02:39.441Z,1.58
2022-08-05T03:05:07.622Z,1.52
2022-08-05T03:08:00.775Z,1.30
2022-08-05T03:10:24.387Z,1.48
2022-08-05T03:12:52.386Z,2.00
2022-08-05T03:15:20.002Z,1.42
2022-08-05T03:17:46.308Z,1.38
2022-08-05T03:20:13.380Z,1.80
2022-08-05T03:22:44.266Z,1.25
2022-08-05T03:25:33.701Z,1.50
2022-08-05T03:28:05.084Z,1.38
2022-08-05T03:30:34.574Z,1.55
2022-08-05T03:33:04.256Z,1.70
2022-08-05T03:35:41.295Z,1.73
2022-08-05T03:38:08.450Z,1.75
2022-08-05T03:40:35.825Z,1.65
2022-08-05T03:43:59.309Z,1.70
2022-08-05T03:45:57.201Z,1.77
2022-08-05T03:48:24.750Z,1.65
2022-08-05T03:50:59.167Z,1.67
2022-08-05T03:55:52.916Z,1.45
2022-08-05T03:56:41.311Z,1.35
2022-08-05T03:59:20.362Z,1.77
2022-08-05T04:01:48.488Z,1.55
2022-08-05T04:04:15.313Z,1.50
2022-08-05T04:06:51.155Z,1.27
2022-08-05T04:09:20.430Z,2.08
2022-08-05T04:11:53.668Z,1.70
2022-08-05T04:14:29.978Z,2.10
2022-08-05T04:16:57.319Z,1.55
2022-08-05T04:19:23.586Z,1.98
2022-08-05T04:22:10.216Z,1.70
2022-08-05T04:24:37.513Z,1.67
2022-08-05T04:27:10.535Z,1.50
2022-08-05T04:29:37.601Z,1.80
2022-08-05T04:32:04.012Z,1.67
2022-08-05T04:34:33.908Z,1.92
2022-08-05T04:37:01.243Z,2.40
2022-08-05T04:39:29.739Z,2.08
2022-08-05T04:41:56.108Z,2.45
2022-08-05T04:44:29.482Z,2.53
2022-08-05T04:46:58.519Z,2.47
2022-08-05T04:49:38.823Z,3.10
2022-08-05T04:52:11.552Z,2.60
2022-08-05T04:54:44.926Z,2.10
2022-08-05T04:57:11.204Z,2.55
2022-08-05T04:59:39.168Z,1.90
2022-08-05T05:02:36.621Z,1.83
2022-08-05T05:04:53.145Z,2.42
2022-08-05T05:07:35.677Z,1.75
2022-08-05T05:10:06.367Z,1.80
2022-08-05T05:12:33.346Z,1.45
2022-08-05T05:14:59.725Z,1.58
2022-08-05T05:17:56.249Z,1.40
2022-08-05T05:20:22.568Z,1.30
2022-08-05T05:22:54.525Z,1.90
2022-08-05T05:25:20.835Z,1.52
2022-08-05T05:27:59.210Z,1.95
2022-08-05T05:30:31.008Z,1.40
2022-08-05T05:33:06.050Z,1.40
2022-08-05T05:35:42.680Z,1.65
2022-08-05T05:38:13.440Z,1.77
2022-08-05T05:40:48.334Z,1.40
2022-08-05T05:43:22.382Z,1.50
2022-08-05T05:46:05.479Z,1.33
2022-08-05T05:48:37.200Z,1.40
2022-08-05T05:51:15.273Z,1.80
2022-08-05T05:53:54.615Z,1.73
2022-08-05T05:56:25.946Z,1.70
2022-08-05T05:59:03.371Z,1.55
2022-08-05T06:01:38.026Z,1.65
2022-08-05T06:04:05.909Z,2.20
2022-08-05T06:06:35.458Z,2.15
2022-08-05T06:09:03.805Z,1.80
2022-08-05T06:11:30.419Z,1.75
2022-08-05T06:13:56.728Z,1.58
2022-08-05T06:16:29.496Z,1.13
2022-08-05T06:18:57.412Z,1.17
2022-08-05T06:21:36.734Z,1.45
2022-08-05T06:24:05.913Z,1.25
2022-08-05T06:26:33.969Z,1.20
2022-08-05T06:29:03.513Z,0.98
2022-08-05T06:31:33.675Z,1.17
2022-08-05T06:34:07.859Z,1.10
2022-08-05T06:39:19.750Z,0.80
2022-08-05T06:41:49.361Z,0.82
2022-08-05T06:44:16.837Z,0.93
2022-08-05T06:46:44.300Z,1.10
2022-08-05T06:49:10.613Z,1.00
2022-08-05T06:51:40.857Z,2.20
2022-08-05T06:54:07.327Z,1.38
2022-08-05T06:56:35.217Z,0.90
2022-08-05T06:59:02.381Z,1.15
2022-08-05T07:01:32.303Z,0.90
2022-08-05T07:03:59.708Z,1.33
2022-08-05T07:06:27.617Z,1.15
2022-08-05T07:08:55.041Z,1.88
2022-08-05T07:11:22.468Z,0.98
2022-08-05T07:14:20.553Z,1.10
2022-08-05T07:17:58.471Z,0.95
2022-08-05T07:22:32.762Z,0.65
2022-08-05T07:25:22.064Z,0.77
2022-08-05T07:27:57.276Z,0.90
2022-08-05T07:30:32.126Z,0.90
2022-08-05T07:33:00.016Z,1.20
2022-08-05T07:36:04.201Z,1.10
2022-08-05T07:38:32.780Z,0.70
2022-08-05T07:41:04.431Z,0.70
2022-08-05T07:43:43.621Z,0.85
2022-08-05T07:46:18.921Z,0.77
2022-08-05T07:49:01.798Z,0.60
2022-08-05T07:51:40.302Z,0.77
2022-08-05T07:54:10.069Z,1.20
2022-08-05T07:57:00.101Z,1.00
2022-08-05T07:59:37.996Z,1.00
2022-08-05T08:02:07.667Z,0.60
2022-08-05T08:04:41.852Z,0.55
2022-08-05T08:07:08.136Z,0.50
2022-08-05T08:09:34.912Z,0.50
2022-08-05T08:12:07.754Z,0.60
2022-08-05T08:14:41.486Z,0.57
2022-08-05T08:17:21.337Z,0.70
2022-08-05T08:20:21.547Z,0.82
2022-08-05T08:22:34.700Z,0.50
2022-08-05T08:25:02.739Z,0.50
2022-08-05T08:27:35.891Z,0.68
2022-08-05T08:30:30.160Z,0.90
2022-08-05T08:32:58.069Z,0.60
2022-08-05T08:35:29.212Z,1.05
2022-08-05T08:38:01.637Z,0.43
2022-08-05T08:40:27.992Z,0.60
2022-08-05T08:42:54.721Z,0.85
2022-08-05T08:45:27.135Z,0.63
2022-08-05T08:48:11.838Z,0.55
2022-08-05T08:51:03.870Z,0.88
2022-08-05T08:53:35.439Z,0.65
2022-08-05T08:56:05.764Z,0.60
2022-08-05T08:58:37.644Z,0.65
2022-08-05T09:01:15.394Z,0.40
2022-08-05T09:03:45.169Z,0.60
2022-08-05T09:06:15.823Z,0.50
2022-08-05T09:08:46.506Z,0.70
2022-08-05T09:11:13.909Z,0.50
2022-08-05T09:14:00.846Z,0.50
2022-08-05T09:16:27.666Z,0.50
2022-08-05T09:18:55.598Z,0.40
2022-08-05T09:22:13.647Z,0.88
2022-08-05T09:24:10.284Z,0.60
2022-08-05T09:26:36.887Z,0.52
2022-08-05T09:29:05.801Z,0.90
2022-08-05T09:32:41.003Z,0.47
2022-08-05T09:34:22.712Z,0.98
2022-08-05T09:36:54.944Z,0.50
2022-08-05T09:39:24.592Z,0.60
2022-08-05T09:42:07.828Z,0.52
2022-08-05T09:44:35.473Z,0.50
2022-08-05T09:47:12.491Z,0.95
2022-08-05T09:49:57.072Z,0.50
2022-08-05T09:52:30.310Z,0.30
2022-08-05T09:55:00.075Z,0.50
2022-08-05T09:57:35.379Z,0.20
2022-08-05T10:00:08.757Z,0.60
2022-08-05T10:02:38.551Z,0.40
2022-08-05T10:05:10.014Z,0.30
2022-08-05T10:08:36.552Z,0.40
2022-08-05T10:10:50.250Z,0.30
2022-08-05T10:13:43.836Z,0.47
2022-08-05T10:16:41.832Z,0.50
2022-08-05T10:19:23.487Z,0.30
2022-08-05T10:21:58.586Z,0.47
2022-08-05T10:24:25.077Z,0.40
2022-08-05T10:27:00.187Z,0.60
2022-08-05T10:30:40.987Z,0.50
2022-08-05T10:32:54.068Z,0.60
2022-08-05T10:35:08.781Z,0.30
2022-08-05T10:37:41.303Z,0.25
2022-08-05T10:40:19.406Z,0.30
2022-08-05T10:42:47.881Z,0.32
2022-08-05T10:45:23.954Z,0.30
2022-08-05T10:48:30.692Z,0.30
2022-08-05T10:51:21.724Z,0.25
2022-08-05T10:53:56.152Z,0.35
2022-08-05T10:56:26.404Z,0.65
2022-08-05T10:58:55.781Z,0.30
2022-08-05T11:01:54.823Z,0.28
2022-08-05T11:04:17.521Z,0.40
2022-08-05T11:06:57.464Z,0.47
2022-08-05T11:09:39.343Z,0.50
2022-08-05T11:12:23.974Z,0.25
2022-08-05T11:15:19.113Z,0.43
2022-08-05T11:18:00.151Z,0.35
2022-08-05T11:20:44.696Z,0.60
2022-08-05T11:23:26.014Z,0.52
2022-08-05T11:26:08.910Z,0.47
2022-08-05T11:28:36.022Z,0.50
2022-08-05T11:31:02.435Z,0.40
2022-08-05T11:33:46.049Z,0.50
2022-08-05T11:36:16.130Z,0.50
2022-08-05T11:39:01.096Z,0.40
2022-08-05T11:41:54.655Z,0.30
2022-08-05T11:44:40.419Z,0.55
2022-08-05T11:47:11.694Z,0.57
2022-08-05T11:49:49.700Z,0.45
2022-08-05T11:52:29.453Z,1.15
2022-08-05T11:54:56.590Z,0.50
2022-08-05T11:57:27.957Z,0.35
2022-08-05T11:59:57.584Z,0.30
2022-08-05T12:02:31.240Z,0.52
2022-08-05T12:04:59.840Z,0.40
2022-08-05T12:08:09.059Z,0.50
2022-08-05T12:10:13.642Z,0.70
2022-08-05T12:12:39.994Z,0.68
2022-08-05T12:15:34.626Z,0.40
2022-08-05T12:18:10.624Z,0.35
2022-08-05T12:20:38.814Z,0.30
2022-08-05T12:23:09.591Z,0.50
2022-08-05T12:25:52.458Z,0.70
2022-08-05T12:28:39.996Z,0.50
2022-08-05T12:31:08.482Z,0.63
2022-08-05T12:33:37.036Z,0.43
2022-08-05T12:36:08.165Z,0.77
2022-08-05T12:38:36.730Z,0.60
2022-08-05T12:41:10.934Z,0.30
2022-08-05T12:43:49.041Z,0.47
2022-08-05T12:46:26.559Z,0.70
2022-08-05T12:49:17.746Z,0.80
2022-08-05T12:52:14.292Z,0.43
2022-08-05T12:54:35.415Z,0.38
2022-08-05T12:57:05.201Z,0.60
2022-08-05T13:00:08.889Z,0.57
2022-08-05T13:02:31.698Z,0.47
2022-08-05T13:04:58.799Z,0.32
2022-08-05T13:07:56.047Z,0.40
2022-08-05T13:10:13.202Z,0.50
2022-08-05T13:12:42.497Z,0.50
2022-08-05T13:15:24.357Z,0.40
2022-08-05T13:18:02.126Z,0.40
2022-08-05T13:20:40.528Z,0.40
2022-08-05T13:23:07.452Z,0.50
2022-08-05T13:25:58.908Z,0.43
2022-08-05T13:28:21.839Z,0.73
2022-08-05T13:30:48.982Z,0.45
2022-08-05T13:34:22.074Z,0.40
2022-08-05T13:36:06.152Z,0.57
2022-08-05T13:38:38.486Z,0.50
2022-08-05T13:41:09.271Z,0.70
2022-08-05T13:43:45.034Z,0.38
2022-08-05T13:46:50.655Z,0.45
2022-08-05T13:49:10.034Z,0.47
2022-08-05T13:51:40.866Z,0.65
2022-08-05T13:54:12.657Z,0.50
2022-08-05T13:56:45.103Z,0.50
2022-08-05T13:59:19.969Z,0.70
2022-08-05T14:01:59.267Z,0.65
2022-08-05T14:05:05.037Z,0.73
2022-08-05T14:08:00.993Z,0.43
2022-08-05T14:10:28.833Z,0.60
2022-08-05T14:12:57.607Z,0.50
2022-08-05T14:16:07.848Z,0.40
2022-08-05T14:18:14.767Z,0.30
2022-08-05T14:20:47.229Z,0.68
2022-08-05T14:23:14.760Z,0.47
2022-08-05T14:25:53.824Z,0.60
2022-08-05T14:28:27.066Z,0.50
2022-08-05T14:30:55.543Z,1.15
2022-08-05T14:33:23.208Z,0.73
2022-08-05T14:35:51.767Z,0.50
2022-08-05T14:38:27.864Z,0.40
2022-08-05T14:41:01.858Z,0.47
2022-08-05T14:43:58.912Z,0.35
2022-08-05T14:46:20.295Z,0.50
2022-08-05T14:48:49.346Z,0.63
2022-08-05T14:51:16.505Z,1.10
2022-08-05T14:53:44.860Z,0.60
2022-08-05T14:56:11.763Z,0.50
2022-08-05T14:58:38.241Z,0.70
2022-08-05T15:01:16.076Z,0.60
2022-08-05T15:03:43.137Z,0.68
2022-08-05T15:06:14.819Z,0.65
2022-08-05T15:08:59.777Z,0.63
2022-08-05T15:11:52.494Z,0.90
2022-08-05T15:14:34.289Z,0.73
2022-08-05T15:17:01.389Z,0.52
2022-08-05T15:19:30.285Z,0.70
2022-08-05T15:22:00.047Z,0.65
2022-08-05T15:24:27.294Z,0.57
2022-08-05T15:26:53.631Z,0.70
2022-08-05T15:29:22.409Z,0.68
2022-08-05T15:31:52.961Z,0.45
2022-08-05T15:34:31.891Z,0.55
2022-08-05T15:37:06.982Z,0.30
2022-08-05T15:40:59.594Z,0.60
2022-08-05T15:42:49.801Z,0.80
2022-08-05T15:45:14.413Z,0.50
2022-08-05T15:47:41.444Z,0.55
2022-08-05T15:50:08.367Z,0.47
2022-08-05T15:52:53.963Z,0.55
2022-08-05T15:55:24.639Z,0.77
2022-08-05T15:57:51.508Z,0.70
2022-08-05T16:00:26.452Z,0.70
2022-08-05T16:03:00.374Z,0.80
2022-08-05T16:05:28.528Z,0.75
2022-08-05T16:07:54.986Z,0.70
2022-08-05T16:10:26.962Z,0.57
2022-08-05T16:12:53.381Z,0.70
2022-08-05T16:15:22.498Z,0.60
2022-08-05T16:17:57.975Z,0.90
2022-08-05T16:20:24.850Z,1.00
2022-08-05T16:22:51.162Z,0.55
2022-08-05T16:25:17.612Z,0.75
2022-08-05T16:28:00.093Z,0.47
2022-08-05T16:30:28.716Z,0.70
2022-08-05T16:32:55.569Z,0.70
2022-08-05T16:35:27.862Z,0.70
2022-08-05T16:38:15.553Z,1.25
2022-08-05T16:40:41.566Z,0.90
2022-08-05T16:43:07.976Z,1.30
2022-08-05T16:46:06.977Z,0.43
2022-08-05T16:48:25.263Z,0.73
2022-08-05T16:50:53.125Z,0.73
2022-08-05T16:53:22.943Z,0.50
2022-08-05T16:56:01.154Z,0.82
2022-08-05T16:58:29.241Z,0.70
2022-08-05T17:00:56.275Z,0.50
2022-08-05T17:03:22.698Z,0.65
2022-08-05T17:05:53.883Z,0.43
2022-08-05T17:08:35.821Z,0.55
2022-08-05T17:11:12.717Z,0.88
2022-08-05T17:13:43.106Z,0.63
2022-08-05T17:16:29.940Z,0.82
2022-08-05T17:18:56.513Z,0.93
2022-08-05T17:21:35.404Z,0.70
2022-08-05T17:24:04.329Z,0.93
2022-08-05T17:26:34.688Z,1.02
2022-08-05T17:29:07.325Z,0.80
2022-08-05T17:31:56.523Z,0.98
2022-08-05T17:34:30.045Z,0.77
2022-08-05T17:36:59.001Z,0.88
2022-08-05T17:39:34.375Z,0.80
2022-08-05T17:42:17.417Z,0.82
2022-08-05T17:47:18.590Z,1.00
2022-08-05T17:49:59.756Z,1.00
2022-08-05T17:52:27.261Z,0.98
2022-08-05T17:54:53.844Z,0.90
2022-08-05T17:57:22.095Z,0.88
2022-08-05T17:59:53.256Z,1.10
2022-08-05T18:02:39.877Z,1.00
2022-08-05T18:05:07.924Z,0.80
2022-08-05T18:07:41.876Z,1.00
2022-08-05T18:10:10.446Z,0.95
2022-08-05T18:12:37.280Z,0.60
2022-08-05T18:15:03.874Z,1.20
2022-08-05T18:18:00.352Z,0.70
2022-08-05T18:20:19.127Z,1.00
2022-08-05T18:22:53.856Z,1.20
2022-08-05T18:25:21.128Z,0.63
2022-08-05T18:27:52.343Z,1.00
2022-08-05T18:30:21.653Z,0.90
2022-08-05T18:32:53.671Z,0.70
2022-08-05T18:35:28.320Z,0.77
2022-08-05T18:38:12.717Z,0.60
2022-08-05T18:41:57.704Z,0.80
2022-08-05T18:43:31.518Z,1.08
2022-08-05T18:46:07.012Z,0.60
2022-08-05T18:48:36.653Z,1.10
2022-08-05T18:52:02.634Z,0.75
2022-08-05T18:54:13.000Z,1.33
2022-08-05T18:56:39.536Z,1.80
2022-08-05T18:59:44.255Z,0.93
2022-08-05T19:01:58.094Z,0.82
2022-08-05T19:04:24.901Z,0.88
2022-08-05T19:06:51.382Z,0.65
2022-08-05T19:09:20.147Z,0.77
2022-08-05T19:12:00.248Z,1.05
2022-08-05T19:14:44.673Z,0.70
2022-08-05T19:17:14.800Z,0.60
2022-08-05T19:19:44.108Z,1.42
2022-08-05T19:22:13.456Z,0.90
2022-08-05T19:24:54.218Z,0.77
2022-08-05T19:27:24.554Z,0.82
2022-08-05T19:29:57.206Z,0.90
2022-08-05T19:32:27.750Z,0.80
2022-08-05T19:34:55.809Z,0.88
2022-08-05T19:37:29.879Z,1.10
2022-08-05T19:40:10.461Z,1.45
2022-08-05T19:42:38.931Z,0.77
2022-08-05T19:45:06.512Z,0.80
2022-08-05T19:47:33.933Z,1.25
2022-08-05T19:50:00.959Z,0.80
2022-08-05T19:52:30.763Z,1.02
2022-08-05T19:55:00.651Z,0.90
2022-08-05T19:57:47.311Z,0.70
2022-08-05T20:00:22.538Z,1.17
2022-08-05T20:02:51.928Z,0.90
2022-08-05T20:05:24.437Z,1.25
2022-08-05T20:07:55.002Z,1.00
2022-08-05T20:10:25.320Z,1.77
2022-08-05T20:12:52.177Z,1.00
2022-08-05T20:15:23.066Z,0.70
2022-08-05T20:18:33.606Z,1.05
2022-08-05T20:20:56.734Z,1.20
2022-08-05T20:23:39.780Z,1.63
2022-08-05T20:26:15.351Z,1.38
2022-08-05T20:28:44.120Z,1.55
2022-08-05T20:31:13.655Z,1.40
2022-08-05T20:33:43.107Z,1.23
2022-08-05T20:36:09.988Z,1.55
2022-08-05T20:38:36.357Z,1.50
2022-08-05T20:41:07.922Z,1.40
2022-08-05T20:43:59.176Z,1.15
2022-08-05T20:46:25.017Z,0.93
2022-08-05T20:48:51.894Z,0.88
2022-08-05T20:51:18.224Z,1.48
2022-08-05T20:53:44.536Z,1.00
2022-08-05T20:56:27.686Z,0.95
2022-08-05T20:58:56.575Z,0.95
2022-08-05T21:01:38.250Z,1.15
2022-08-05T21:04:12.413Z,0.88
2022-08-05T21:06:45.523Z,1.17
2022-08-05T21:09:15.041Z,0.75
2022-08-05T21:12:10.797Z,0.70
2022-08-05T21:14:34.644Z,0.80
2022-08-05T21:17:01.344Z,1.13
2022-08-05T21:19:29.510Z,1.10
2022-08-05T21:22:14.026Z,0.73
2022-08-05T21:24:40.909Z,0.93
2022-08-05T21:27:08.916Z,1.15
2022-08-05T21:29:40.663Z,2.42
2022-08-05T21:32:07.307Z,1.35
2022-08-05T21:34:35.535Z,0.95
2022-08-05T21:37:04.428Z,1.00
2022-08-05T21:39:30.849Z,1.13
2022-08-05T21:42:01.867Z,1.17
2022-08-05T21:44:29.016Z,1.48
2022-08-05T21:46:58.208Z,0.93
2022-08-05T21:49:48.167Z,0.95
2022-08-05T21:52:16.727Z,0.85
2022-08-05T21:54:51.974Z,0.98
2022-08-05T21:57:31.246Z,1.35
2022-08-05T22:00:10.840Z,0.88
2022-08-05T22:02:38.028Z,1.17
2022-08-05T22:05:04.786Z,0.73
2022-08-05T22:07:40.144Z,0.98
2022-08-05T22:10:18.088Z,0.80
2022-08-05T22:12:53.724Z,0.98
2022-08-05T22:16:01.660Z,1.17
2022-08-05T22:18:08.647Z,0.90
2022-08-05T22:20:38.925Z,0.90
2022-08-05T22:23:24.482Z,1.23
2022-08-05T22:26:11.858Z,0.98
2022-08-05T22:28:41.738Z,1.33
2022-08-05T22:31:08.011Z,1.35
2022-08-05T22:33:57.944Z,1.13
2022-08-05T22:36:24.538Z,1.20
2022-08-05T22:38:51.411Z,1.40
2022-08-05T22:42:05.122Z,1.42
2022-08-05T22:44:05.395Z,0.98
2022-08-05T22:46:31.696Z,0.77
2022-08-05T22:48:58.814Z,1.40
2022-08-05T22:52:02.962Z,1.30
2022-08-05T22:54:11.341Z,1.10
2022-08-05T22:56:40.018Z,1.10
2022-08-05T22:59:44.273Z,1.05
2022-08-05T23:02:06.085Z,1.45
2022-08-05T23:04:34.213Z,0.90
2022-08-05T23:07:00.912Z,0.88
2022-08-05T23:09:58.376Z,1.05
2022-08-05T23:12:13.543Z,0.93
2022-08-05T23:14:39.964Z,1.10
2022-08-05T23:17:34.737Z,1.55
2022-08-05T23:20:04.906Z,1.25
2022-08-05T23:22:31.798Z,1.42
2022-08-05T23:24:59.813Z,0.90
2022-08-05T23:27:28.814Z,1.20
2022-08-05T23:29:57.903Z,1.05
2022-08-05T23:32:24.683Z,1.73
2022-08-05T23:34:55.839Z,0.98
2022-08-05T23:37:22.468Z,1.20
2022-08-05T23:39:54.744Z,1.35
2022-08-05T23:42:29.154Z,1.80
2022-08-05T23:44:56.285Z,1.63
2022-08-05T23:47:24.935Z,1.65
2022-08-05T23:49:51.978Z,2.17
2022-08-05T23:52:30.817Z,1.63
2022-08-05T23:55:02.104Z,1.50
2022-08-05T23:57:33.302Z,1.27
